Time;durP1;ratioP1;P1;durP2;ratioP2;P2;SDS_P1;SDS_P2;PMS_P1;PMS_P2;Temp;Humidity;BMP_temperature;BMP_pressure;BME280_temperature;BME280_humidity;BME280_pressure;Samples;Min_cycle;Max_cycle;Signal;HPM_P1;HPM_P2
2021/05/05 00:00:32;;;;;;;7.53;3.90;;;;;;;6.53;92.49;99455.63;4991444;28;20057;-79
2021/05/05 00:02:58;;;;;;;8.73;4.35;;;;;;;6.54;92.77;99443.94;4985348;28;20042;-77
2021/05/05 00:05:23;;;;;;;9.15;4.40;;;;;;;6.51;92.46;99435.47;4985703;28;20061;-78
2021/05/05 00:07:49;;;;;;;8.52;5.18;;;;;;;6.51;92.63;99454.94;4991375;28;20101;-78
2021/05/05 00:10:16;;;;;;;7.20;4.53;;;;;;;6.52;92.70;99450.44;4984976;28;20054;-77
2021/05/05 00:12:43;;;;;;;7.65;4.38;;;;;;;6.46;92.48;99453.78;4993437;28;20507;-77
2021/05/05 00:15:18;;;;;;;6.55;4.82;;;;;;;6.40;92.71;99457.16;4987677;28;20046;-76
2021/05/05 00:17:44;;;;;;;8.25;4.43;;;;;;;6.41;92.59;99458.78;4984464;28;20089;-77
2021/05/05 00:20:10;;;;;;;7.43;4.28;;;;;;;6.37;92.33;99455.66;4986463;28;20113;-79
2021/05/05 00:22:35;;;;;;;8.13;4.45;;;;;;;6.33;92.79;99468.47;4982606;28;20053;-78
2021/05/05 00:25:02;;;;;;;6.15;4.40;;;;;;;6.36;92.70;99458.47;4990768;28;20038;-77
2021/05/05 00:27:28;;;;;;;8.55;4.07;;;;;;;6.32;92.48;99453.47;4969180;28;20555;-78
2021/05/05 00:29:53;;;;;;;5.72;3.92;;;;;;;6.25;92.76;99457.00;4978757;28;20055;-77
2021/05/05 00:32:18;;;;;;;9.75;3.85;;;;;;;6.25;92.75;99465.00;4997141;28;20047;-78
2021/05/05 00:34:44;;;;;;;5.97;3.47;;;;;;;6.26;92.46;99459.50;4983261;28;20058;-77
2021/05/05 00:37:09;;;;;;;4.57;3.20;;;;;;;6.20;92.79;99467.34;4988992;28;20046;-78
2021/05/05 00:39:35;;;;;;;7.22;3.17;;;;;;;6.21;92.65;99464.47;4979925;28;20050;-76
2021/05/05 00:42:01;;;;;;;4.78;3.67;;;;;;;6.24;92.28;99473.97;4986554;28;20053;-77
2021/05/05 00:44:27;;;;;;;5.75;3.55;;;;;;;6.21;92.60;99463.66;4986822;28;20054;-77
2021/05/05 00:46:52;;;;;;;6.15;3.22;;;;;;;6.20;92.47;99460.16;4986446;28;20054;-77
2021/05/05 00:49:17;;;;;;;5.80;3.10;;;;;;;6.19;92.11;99468.34;4980089;28;20042;-76
2021/05/05 00:51:43;;;;;;;7.03;3.08;;;;;;;6.20;92.23;99460.16;5000093;28;20054;-78
2021/05/05 00:54:09;;;;;;;7.15;2.80;;;;;;;6.17;92.26;99457.00;4994027;28;20054;-77
2021/05/05 00:56:34;;;;;;;6.65;2.40;;;;;;;6.19;92.24;99452.34;4998661;28;20046;-76
2021/05/05 00:59:00;;;;;;;8.23;2.85;;;;;;;6.20;92.04;99454.00;4968345;28;20423;-77
2021/05/05 01:01:25;;;;;;;4.60;2.55;;;;;;;6.22;91.73;99452.03;4980027;28;20133;-78
2021/05/05 01:03:51;;;;;;;8.32;3.20;;;;;;;6.24;91.82;99458.00;4984737;28;20089;-77
2021/05/05 01:06:17;;;;;;;7.45;2.80;;;;;;;6.20;91.76;99452.19;4986345;28;20069;-77
2021/05/05 01:08:45;;;;;;;8.68;2.42;;;;;;;6.18;91.77;99458.66;4986067;28;20046;-77
2021/05/05 01:11:11;;;;;;;6.63;2.88;;;;;;;6.19;91.69;99461.19;4985826;28;20039;-77
2021/05/05 01:13:37;;;;;;;6.45;2.42;;;;;;;6.23;91.73;99454.50;4979448;28;20466;-77
2021/05/05 01:16:02;;;;;;;5.22;2.40;;;;;;;6.19;91.52;99434.53;5001134;28;20046;-77
2021/05/05 01:18:27;;;;;;;4.68;2.47;;;;;;;6.22;91.29;99462.69;4994747;28;20046;-77
2021/05/05 01:20:57;;;;;;;6.80;2.80;;;;;;;6.23;91.52;99459.00;4990608;28;20571;-77
2021/05/05 01:23:24;;;;;;;7.07;2.85;;;;;;;6.22;91.46;99449.34;4990994;28;20035;-78
2021/05/05 01:25:50;;;;;;;7.03;2.83;;;;;;;6.23;91.67;99456.34;4989781;28;20072;-76
2021/05/05 01:28:15;;;;;;;6.38;3.05;;;;;;;6.23;91.35;99457.16;4973449;28;20066;-77
2021/05/05 01:30:41;;;;;;;8.95;3.97;;;;;;;6.23;91.58;99438.50;4983249;28;20042;-77
2021/05/05 01:33:07;;;;;;;7.72;3.58;;;;;;;6.21;91.92;99456.50;4998187;28;20129;-78
2021/05/05 01:35:32;;;;;;;7.95;4.00;;;;;;;6.22;91.84;99460.84;4986830;28;20142;-77
2021/05/05 01:37:58;;;;;;;6.60;3.63;;;;;;;6.21;91.84;99458.31;4986213;28;20125;-77
2021/05/05 01:40:28;;;;;;;6.22;3.45;;;;;;;6.15;92.03;99453.69;4988619;28;20439;-77
2021/05/05 01:42:54;;;;;;;7.28;3.83;;;;;;;6.20;91.71;99446.03;4985279;28;20080;-77
2021/05/05 01:45:20;;;;;;;6.93;3.30;;;;;;;6.16;91.61;99445.53;4990518;28;20461;-77
2021/05/05 01:47:45;;;;;;;5.93;3.20;;;;;;;6.19;91.71;99449.69;4991507;28;20133;-77
2021/05/05 01:50:11;;;;;;;7.18;3.38;;;;;;;6.20;91.47;99465.50;4991481;28;20493;-77
2021/05/05 01:52:37;;;;;;;9.98;3.50;;;;;;;6.21;91.69;99450.34;4990988;28;20046;-77
2021/05/05 01:55:04;;;;;;;6.57;4.40;;;;;;;6.20;91.48;99448.69;4986995;28;20054;-76
2021/05/05 01:57:30;;;;;;;8.25;3.85;;;;;;;6.17;91.47;99459.69;4995718;28;20583;-77
2021/05/05 01:59:57;;;;;;;7.75;3.92;;;;;;;6.18;91.41;99442.69;4986378;28;20141;-77
2021/05/05 02:02:22;;;;;;;8.88;4.05;;;;;;;6.17;91.61;99425.88;4986442;28;20046;-76
2021/05/05 02:04:48;;;;;;;12.18;4.65;;;;;;;6.21;91.48;99443.16;4984614;28;20619;-76
2021/05/05 02:07:14;;;;;;;8.00;4.75;;;;;;;6.23;91.55;99440.34;4987152;28;20068;-77
2021/05/05 02:09:40;;;;;;;11.13;4.57;;;;;;;6.22;91.62;99441.38;4984320;28;20058;-77
2021/05/05 02:12:06;;;;;;;8.90;4.50;;;;;;;6.23;92.02;99440.34;4987513;28;20065;-78
2021/05/05 02:14:31;;;;;;;9.23;4.45;;;;;;;6.21;92.60;99450.34;4976538;28;20046;-78
2021/05/05 02:16:58;;;;;;;8.82;4.05;;;;;;;6.14;93.08;99428.06;5001297;28;20649;-77
2021/05/05 02:19:24;;;;;;;10.73;4.13;;;;;;;6.05;93.40;99443.22;4986607;28;20145;-78
2021/05/05 02:21:50;;;;;;;10.27;3.92;;;;;;;6.02;93.64;99452.38;4967692;28;20158;-77
2021/05/05 02:24:15;;;;;;;13.45;4.22;;;;;;;6.01;94.69;99452.50;4985715;28;20124;-78
2021/05/05 02:26:41;;;;;;;7.50;3.88;;;;;;;5.96;95.04;99434.41;4967239;28;20057;-78
2021/05/05 02:29:07;;;;;;;12.55;4.57;;;;;;;5.98;94.71;99447.53;4986101;28;20049;-78
2021/05/05 02:31:32;;;;;;;9.80;4.00;;;;;;;5.93;95.06;99434.75;4986287;28;20042;-78
2021/05/05 02:33:58;;;;;;;12.38;4.30;;;;;;;5.94;94.60;99436.38;4985671;28;20030;-77
2021/05/05 02:36:23;;;;;;;11.45;5.15;;;;;;;5.94;95.02;99440.88;4984078;28;20046;-77
2021/05/05 02:38:49;;;;;;;11.88;5.32;;;;;;;5.92;94.89;99440.19;4986828;28;20049;-78
2021/05/05 02:41:14;;;;;;;8.13;4.57;;;;;;;5.91;95.16;99443.84;4984569;28;20458;-78
2021/05/05 02:43:40;;;;;;;11.20;6.85;;;;;;;5.89;95.05;99449.34;4978676;28;20045;-78
2021/05/05 02:46:06;;;;;;;10.88;6.30;;;;;;;5.87;95.15;99451.34;4986090;28;20390;-77
2021/05/05 02:48:31;;;;;;;11.85;5.43;;;;;;;5.82;94.74;99437.69;4988345;28;20100;-77
2021/05/05 02:50:57;;;;;;;10.05;4.60;;;;;;;5.81;94.17;99452.00;4982721;28;20042;-78
2021/05/05 02:53:22;;;;;;;9.45;3.58;;;;;;;5.80;93.74;99453.81;4984924;28;20145;-77
2021/05/05 02:55:47;;;;;;;7.30;3.38;;;;;;;5.77;92.68;99456.00;5005630;28;20054;-77
2021/05/05 02:58:13;;;;;;;7.88;4.20;;;;;;;5.81;92.80;99452.00;5000389;28;20407;-77
2021/05/05 03:00:38;;;;;;;10.95;3.50;;;;;;;5.78;92.56;99452.31;4988235;28;20046;-77
2021/05/05 03:03:05;;;;;;;10.05;3.08;;;;;;;5.76;92.44;99449.03;4989113;28;20050;-77
2021/05/05 03:05:30;;;;;;;5.82;3.13;;;;;;;5.76;92.39;99457.00;4989981;28;20509;-77
2021/05/05 03:07:55;;;;;;;7.05;2.83;;;;;;;5.75;92.38;99445.50;4971937;28;20046;-76
2021/05/05 03:10:21;;;;;;;8.32;3.47;;;;;;;5.76;92.79;99449.84;4981587;28;20430;-78
2021/05/05 03:12:47;;;;;;;6.95;3.10;;;;;;;5.76;93.12;99449.03;4984009;28;20088;-77
2021/05/05 03:15:12;;;;;;;7.53;3.22;;;;;;;5.73;93.83;99449.34;4995045;28;20046;-77
2021/05/05 03:17:38;;;;;;;7.03;3.00;;;;;;;5.68;94.44;99462.31;4987707;28;20050;-77
2021/05/05 03:20:09;;;;;;;9.55;3.38;;;;;;;5.63;95.53;99450.31;4989220;28;20043;-77
2021/05/05 03:22:35;;;;;;;10.43;3.25;;;;;;;5.60;95.82;99461.28;4979557;28;20133;-78
2021/05/05 03:25:02;;;;;;;8.43;2.95;;;;;;;5.57;95.32;99456.31;4989096;28;20042;-77
2021/05/05 03:27:28;;;;;;;6.30;2.50;;;;;;;5.57;95.44;99460.78;4988428;28;20487;-77
2021/05/05 03:29:53;;;;;;;10.02;2.83;;;;;;;5.50;95.65;99455.31;4992179;28;20050;-76
2021/05/05 03:32:19;;;;;;;6.63;2.55;;;;;;;5.51;95.61;99459.63;4980224;28;20051;-78
2021/05/05 03:34:44;;;;;;;12.05;2.72;;;;;;;5.47;95.52;99455.63;4987183;28;20055;-76
2021/05/05 03:37:09;;;;;;;8.88;2.65;;;;;;;5.47;95.42;99462.75;4972448;28;20137;-77
2021/05/05 03:39:35;;;;;;;7.38;2.55;;;;;;;5.42;95.15;99456.13;4976577;28;20133;-77
2021/05/05 03:42:00;;;;;;;9.00;2.22;;;;;;;5.39;95.09;99448.47;4987893;28;20042;-77
2021/05/05 03:44:26;;;;;;;5.80;2.25;;;;;;;5.35;95.22;99463.09;4988256;28;20077;-77
2021/05/05 03:46:51;;;;;;;8.68;2.60;;;;;;;5.34;95.19;99461.41;4987768;28;20227;-77
2021/05/05 03:49:16;;;;;;;7.25;2.13;;;;;;;5.31;95.12;99460.91;5001027;28;20092;-78
2021/05/05 03:51:42;;;;;;;8.35;2.50;;;;;;;5.28;94.91;99456.75;4996272;28;20847;-78
2021/05/05 03:54:10;;;;;;;8.40;2.42;;;;;;;5.24;95.25;99460.75;4987626;28;20483;-77
2021/05/05 03:56:35;;;;;;;8.93;2.65;;;;;;;5.23;95.18;99455.56;4986123;28;20042;-77
2021/05/05 03:59:01;;;;;;;7.22;1.88;;;;;;;5.20;95.32;99465.53;4986541;28;20485;-78
2021/05/05 04:01:26;;;;;;;8.65;2.50;;;;;;;5.21;95.25;99466.41;4984454;28;20034;-78
2021/05/05 04:03:52;;;;;;;7.25;2.75;;;;;;;5.29;95.02;99473.53;4982317;28;20088;-77
2021/05/05 04:06:17;;;;;;;8.70;2.75;;;;;;;5.23;95.15;99460.91;4980777;28;20049;-77
2021/05/05 04:08:43;;;;;;;8.23;2.17;;;;;;;5.20;94.98;99470.03;4985256;28;20066;-77
2021/05/05 04:11:08;;;;;;;9.48;2.67;;;;;;;5.18;95.03;99464.88;4989269;28;20050;-77
2021/05/05 04:13:34;;;;;;;6.78;2.10;;;;;;;5.13;95.39;99475.16;4984539;28;20494;-77
2021/05/05 04:16:02;;;;;;;7.75;2.20;;;;;;;5.15;95.33;99467.88;4981926;28;20066;-78
2021/05/05 04:18:28;;;;;;;11.40;2.63;;;;;;;5.19;95.20;99479.00;4981324;28;20046;-76
2021/05/05 04:20:56;;;;;;;8.60;2.20;;;;;;;5.13;95.56;99480.50;4980006;28;20794;-77
2021/05/05 04:23:22;;;;;;;10.30;3.27;;;;;;;5.11;96.10;99484.28;4985860;28;20046;-77
2021/05/05 04:25:47;;;;;;;9.57;2.47;;;;;;;5.09;96.47;99473.84;4974939;28;20140;-77
2021/05/05 04:28:13;;;;;;;8.13;2.88;;;;;;;5.15;96.59;99489.16;4987934;28;20049;-77
2021/05/05 04:30:39;;;;;;;9.00;3.10;;;;;;;5.14;96.38;99491.94;4988161;28;20042;-77
2021/05/05 04:33:04;;;;;;;10.45;2.83;;;;;;;5.19;96.14;99493.13;4989219;28;20399;-77
2021/05/05 04:35:30;;;;;;;7.45;2.78;;;;;;;5.23;95.64;99479.50;4990684;28;20046;-78
2021/05/05 04:37:55;;;;;;;8.48;2.58;;;;;;;5.24;95.10;99476.72;4972261;28;20049;-77
2021/05/05 04:40:20;;;;;;;9.05;3.35;;;;;;;5.27;95.42;99492.34;4991582;28;20560;-77
2021/05/05 04:42:46;;;;;;;7.68;2.85;;;;;;;5.26;94.56;99479.19;4986541;28;20042;-77
2021/05/05 04:45:11;;;;;;;4.40;2.03;;;;;;;5.29;94.08;99500.13;4991470;28;20049;-78
2021/05/05 04:47:38;;;;;;;11.27;2.90;;;;;;;5.28;93.34;99493.16;4986605;28;20080;-77
2021/05/05 04:50:06;;;;;;;12.43;2.75;;;;;;;5.32;92.90;99500.69;4981987;28;20039;-77
2021/05/05 04:52:31;;;;;;;8.85;2.50;;;;;;;5.28;92.30;99488.66;4983454;28;20050;-77
2021/05/05 04:54:57;;;;;;;11.13;2.63;;;;;;;5.31;92.24;99498.16;4982490;28;20045;-77
2021/05/05 04:57:22;;;;;;;8.85;2.30;;;;;;;5.33;91.71;99501.50;4991425;28;20060;-77
2021/05/05 04:59:48;;;;;;;8.57;2.25;;;;;;;5.38;91.73;99507.16;4990360;28;20046;-77
2021/05/05 05:02:13;;;;;;;6.40;2.40;;;;;;;5.33;91.31;99504.16;4991515;28;20041;-77
2021/05/05 05:04:40;;;;;;;11.30;2.00;;;;;;;5.27;91.12;99518.94;4987726;28;20626;-78
2021/05/05 05:07:06;;;;;;;8.82;2.50;;;;;;;5.36;91.10;99511.81;4987522;28;20046;-76
2021/05/05 05:09:32;;;;;;;8.02;1.95;;;;;;;5.32;91.24;99516.63;4983724;28;20070;-78
2021/05/05 05:11:58;;;;;;;5.45;1.63;;;;;;;5.34;91.31;99508.47;4983507;28;20710;-77
2021/05/05 05:14:23;;;;;;;5.68;2.20;;;;;;;5.39;92.03;99525.63;4986907;28;20361;-76
2021/05/05 05:16:49;;;;;;;7.53;2.35;;;;;;;5.40;92.66;99534.44;4989178;28;20105;-77
2021/05/05 05:19:14;;;;;;;5.55;1.85;;;;;;;5.36;93.32;99541.91;4985528;28;20137;-77
2021/05/05 05:21:40;;;;;;;12.02;3.00;;;;;;;5.40;93.85;99526.44;4966990;28;20081;-77
2021/05/05 05:24:06;;;;;;;11.88;3.33;;;;;;;5.40;94.07;99529.94;5004284;28;20104;-77
2021/05/05 05:26:31;;;;;;;8.60;3.55;;;;;;;5.44;93.78;99533.13;4989086;28;20541;-77
2021/05/05 05:28:57;;;;;;;11.57;4.00;;;;;;;5.46;93.96;99531.13;4979962;28;20126;-77
2021/05/05 05:31:22;;;;;;;13.52;4.07;;;;;;;5.50;93.91;99532.47;4974567;28;20034;-77
2021/05/05 05:33:47;;;;;;;10.43;3.70;;;;;;;5.51;94.09;99539.44;4984838;28;20046;-77
2021/05/05 05:36:13;;;;;;;11.45;4.82;;;;;;;5.57;94.07;99538.81;4972129;28;20130;-78
2021/05/05 05:38:38;;;;;;;11.15;3.88;;;;;;;5.58;94.34;99547.63;4982279;28;20054;-77
2021/05/05 05:41:04;;;;;;;12.80;4.93;;;;;;;5.60;94.40;99546.47;4982768;28;20076;-77
2021/05/05 05:43:29;;;;;;;13.27;4.40;;;;;;;5.62;94.28;99557.78;4981541;28;20081;-77
2021/05/05 05:45:55;;;;;;;10.40;4.43;;;;;;;5.66;94.42;99556.44;4980467;28;20280;-77
2021/05/05 05:48:20;;;;;;;11.50;4.10;;;;;;;5.65;94.45;99543.31;4979656;28;20058;-77
2021/05/05 05:50:45;;;;;;;16.38;5.15;;;;;;;5.73;94.93;99550.50;4982296;28;20042;-78
2021/05/05 05:53:11;;;;;;;9.40;4.18;;;;;;;5.77;94.20;99555.31;4973117;28;20117;-78
2021/05/05 05:55:41;;;;;;;13.82;4.38;;;;;;;5.81;94.66;99553.16;4988662;28;20054;-78
2021/05/05 05:58:06;;;;;;;13.95;4.53;;;;;;;5.78;93.53;99557.00;4982906;28;20058;-77
2021/05/05 06:00:31;;;;;;;10.35;4.10;;;;;;;5.86;93.98;99556.16;4992367;28;20419;-78
2021/05/05 06:02:57;;;;;;;8.00;3.55;;;;;;;5.88;93.57;99543.53;4974121;28;20540;-78
2021/05/05 06:05:22;;;;;;;10.35;3.50;;;;;;;5.86;93.16;99550.84;4989558;28;20200;-77
2021/05/05 06:07:49;;;;;;;9.73;3.55;;;;;;;5.82;92.57;99558.31;4981607;28;20046;-77
2021/05/05 06:10:14;;;;;;;14.73;4.10;;;;;;;5.85;92.40;99551.84;4979645;28;20049;-76
2021/05/05 06:12:40;;;;;;;9.55;3.22;;;;;;;5.85;91.38;99538.53;4974023;28;20047;-76
2021/05/05 06:15:07;;;;;;;8.05;2.20;;;;;;;5.87;89.72;99568.50;4984070;28;20073;-79
2021/05/05 06:17:32;;;;;;;6.85;2.22;;;;;;;5.85;88.76;99589.13;4977679;28;20046;-77
2021/05/05 06:19:58;;;;;;;5.78;2.25;;;;;;;5.85;89.22;99570.47;4968803;28;20053;-75
2021/05/05 06:22:23;;;;;;;5.57;1.90;;;;;;;5.73;89.43;99559.31;4989050;28;20070;-76
2021/05/05 06:24:49;;;;;;;5.75;2.40;;;;;;;5.71;90.86;99568.47;4970354;28;20046;-76
2021/05/05 06:27:14;;;;;;;8.43;3.50;;;;;;;5.64;92.14;99574.44;4987410;28;20124;-75
2021/05/05 06:29:40;;;;;;;9.70;3.83;;;;;;;5.64;93.01;99585.06;4985661;28;20518;-76
2021/05/05 06:32:05;;;;;;;12.43;3.90;;;;;;;5.72;93.58;99584.25;4985730;28;20036;-75
2021/05/05 06:34:33;;;;;;;8.77;4.28;;;;;;;5.76;93.39;99579.47;4982621;28;20039;-75
2021/05/05 06:37:03;;;;;;;9.73;4.30;;;;;;;5.84;93.70;99580.31;4989609;28;20664;-76
2021/05/05 06:39:30;;;;;;;10.68;4.00;;;;;;;5.84;93.21;99574.97;4976161;28;20866;-76
2021/05/05 06:41:55;;;;;;;9.55;4.50;;;;;;;5.86;92.38;99591.59;4968319;28;20367;-76
2021/05/05 06:44:20;;;;;;;8.93;4.60;;;;;;;5.93;92.70;99582.97;4975125;28;20046;-77
2021/05/05 06:46:48;;;;;;;8.60;4.65;;;;;;;5.92;92.74;99598.09;4975771;28;20042;-75
2021/05/05 06:49:14;;;;;;;14.35;4.65;;;;;;;5.89;93.20;99593.09;4977810;28;20065;-76
2021/05/05 06:51:40;;;;;;;13.18;5.80;;;;;;;5.97;93.12;99593.16;4977059;28;20456;-77
2021/05/05 06:54:08;;;;;;;13.98;6.22;;;;;;;6.05;92.85;99600.34;4999241;28;20046;-76
2021/05/05 06:56:35;;;;;;;8.10;4.50;;;;;;;6.06;92.40;99596.69;4972894;28;20665;-76
2021/05/05 06:59:00;;;;;;;10.77;4.72;;;;;;;6.04;91.75;99591.53;4983870;28;20278;-77
2021/05/05 07:01:26;;;;;;;10.60;4.43;;;;;;;6.06;90.97;99594.84;4983141;28;20068;-77
2021/05/05 07:03:51;;;;;;;12.50;4.50;;;;;;;6.20;89.97;99597.88;4981534;28;20975;-76
2021/05/05 07:06:17;;;;;;;10.63;4.43;;;;;;;6.29;89.97;99615.50;4981099;28;20495;-77
2021/05/05 07:08:42;;;;;;;12.30;4.43;;;;;;;6.28;89.91;99595.22;4996808;28;20394;-76
2021/05/05 07:11:08;;;;;;;13.25;4.28;;;;;;;6.27;89.52;99601.50;4982875;28;20401;-76
2021/05/05 07:13:33;;;;;;;9.75;4.00;;;;;;;6.27;88.96;99606.84;4986699;28;20457;-78
2021/05/05 07:16:00;;;;;;;8.38;3.65;;;;;;;6.29;88.75;99596.88;4999200;28;20516;-78
2021/05/05 07:18:25;;;;;;;11.60;3.17;;;;;;;6.36;87.88;99589.03;4994535;28;20039;-77
2021/05/05 07:20:51;;;;;;;10.75;3.20;;;;;;;6.43;87.43;99601.53;4988799;28;20040;-77
2021/05/05 07:23:18;;;;;;;4.60;2.63;;;;;;;6.47;86.85;99597.56;4977836;28;20123;-78
2021/05/05 07:25:43;;;;;;;10.50;3.13;;;;;;;6.61;86.89;99596.03;4978355;28;20109;-76
2021/05/05 07:28:09;;;;;;;10.60;3.38;;;;;;;6.55;85.32;99586.88;4979328;28;20460;-77
2021/05/05 07:30:35;;;;;;;10.40;3.38;;;;;;;6.70;86.04;99588.84;4996099;28;20042;-77
2021/05/05 07:33:00;;;;;;;10.65;3.33;;;;;;;6.84;84.15;99598.81;4980981;28;20046;-76
2021/05/05 07:35:27;;;;;;;11.32;2.88;;;;;;;6.88;83.63;99589.50;4973166;28;20061;-76
2021/05/05 07:48:36;;;;;;;11.70;3.03;;;;;;;6.93;83.36;99608.50;4991274;28;20043;-76
2021/05/05 07:51:02;;;;;;;11.25;2.95;;;;;;;6.94;82.61;99642.16;4990437;28;20035;-76
2021/05/05 07:53:28;;;;;;;9.95;2.28;;;;;;;6.88;81.67;99618.84;4988372;28;20089;-77
2021/05/05 07:55:55;;;;;;;9.43;2.55;;;;;;;6.92;81.01;99619.31;4969144;28;20797;-77
2021/05/05 07:58:21;;;;;;;9.70;2.55;;;;;;;6.98;81.26;99608.81;4983129;28;20050;-76
2021/05/05 08:00:47;;;;;;;10.90;1.92;;;;;;;6.97;80.62;99609.81;4986312;28;20042;-77
2021/05/05 08:03:12;;;;;;;9.82;3.10;;;;;;;7.02;80.19;99630.66;4988598;28;20390;-76
2021/05/05 08:05:38;;;;;;;4.47;2.30;;;;;;;7.15;80.81;99622.13;4991326;28;20082;-77
2021/05/05 08:08:03;;;;;;;7.53;2.15;;;;;;;7.13;78.74;99616.94;4991295;28;20133;-78
2021/05/05 08:10:29;;;;;;;8.13;2.00;;;;;;;7.11;78.20;99626.97;4988528;28;20108;-77
2021/05/05 08:12:54;;;;;;;8.40;1.83;;;;;;;7.13;78.86;99624.94;4986148;28;20069;-77
2021/05/05 08:15:20;;;;;;;6.10;1.90;;;;;;;7.23;79.56;99630.09;4978790;28;20455;-77
2021/05/05 08:17:46;;;;;;;6.75;2.10;;;;;;;7.20;78.98;99635.78;4982117;28;20406;-78
2021/05/05 08:20:13;;;;;;;6.35;2.10;;;;;;;7.12;79.41;99635.81;4984753;28;20034;-76
2021/05/05 08:22:38;;;;;;;9.35;2.10;;;;;;;7.17;80.76;99646.81;4990557;28;20499;-76
2021/05/05 08:25:05;;;;;;;9.13;2.60;;;;;;;7.21;79.80;99634.78;4992276;28;20128;-77
2021/05/05 08:27:30;;;;;;;8.65;2.10;;;;;;;7.25;80.34;99641.44;4991887;28;20402;-76
2021/05/05 08:29:55;;;;;;;9.70;2.28;;;;;;;7.19;79.66;99648.28;4987046;28;20054;-77
2021/05/05 08:32:21;;;;;;;6.68;2.03;;;;;;;7.20;80.51;99657.13;4988486;28;20057;-77
2021/05/05 08:34:46;;;;;;;5.88;2.15;;;;;;;7.06;81.05;99668.50;4985340;28;20102;-77
2021/05/05 08:37:12;;;;;;;6.53;2.20;;;;;;;6.98;84.72;99664.00;4986949;28;20490;-77
2021/05/05 08:39:37;;;;;;;6.85;2.55;;;;;;;6.88;85.53;99674.84;4963415;28;20052;-77
2021/05/05 08:42:03;;;;;;;10.18;2.30;;;;;;;6.86;87.09;99673.34;4989936;28;20446;-78
2021/05/05 08:44:29;;;;;;;7.57;2.22;;;;;;;6.87;86.58;99675.81;4983603;28;20049;-77
2021/05/05 08:46:55;;;;;;;5.78;2.03;;;;;;;6.95;85.41;99683.81;4988843;28;20076;-77
2021/05/05 08:49:20;;;;;;;6.10;2.20;;;;;;;7.03;85.72;99666.16;4999575;28;20046;-77
2021/05/05 08:51:47;;;;;;;7.65;2.42;;;;;;;7.07;84.95;99657.63;4988728;28;20049;-77
2021/05/05 08:54:13;;;;;;;10.93;2.55;;;;;;;7.18;85.25;99672.47;4990222;28;20047;-78
2021/05/05 08:56:39;;;;;;;7.30;2.30;;;;;;;7.24;83.32;99666.44;4985654;28;20053;-76
2021/05/05 08:59:08;;;;;;;9.15;2.65;;;;;;;7.32;82.70;99661.09;4984706;28;20126;-77
2021/05/05 09:01:34;;;;;;;7.57;2.45;;;;;;;7.54;82.68;99658.69;4984631;28;20046;-77
2021/05/05 09:04:00;;;;;;;7.47;2.13;;;;;;;7.62;80.51;99669.34;4984905;28;20066;-77
2021/05/05 09:06:52;;;;;;;9.40;2.13;;;;;;;7.72;81.09;99682.50;4984344;28;20042;-76
2021/05/05 09:09:29;;;;;;;7.43;2.22;;;;;;;7.79;78.56;99684.28;4951962;28;20047;-78
2021/05/05 09:11:55;;;;;;;7.90;1.77;;;;;;;7.86;76.99;99695.97;4980742;28;20046;-76
2021/05/05 09:14:20;;;;;;;4.22;1.33;;;;;;;7.97;77.90;99685.88;4987107;28;20132;-77
2021/05/05 09:16:46;;;;;;;5.35;1.30;;;;;;;8.03;76.32;99701.25;4995028;28;20074;-78
2021/05/05 09:19:11;;;;;;;8.38;2.13;;;;;;;7.99;74.96;99692.72;4981143;28;20120;-77
2021/05/05 09:21:45;;;;;;;5.32;1.40;;;;;;;8.06;74.36;99691.03;4978297;28;20050;-77
2021/05/05 09:24:21;;;;;;;5.78;1.60;;;;;;;8.12;75.20;99697.53;4987819;28;20507;-76
2021/05/05 09:26:50;;;;;;;6.90;1.42;;;;;;;8.10;75.74;99694.19;4982510;28;20088;-77
2021/05/05 09:29:16;;;;;;;4.28;1.30;;;;;;;8.19;74.94;99743.91;4982982;28;20447;-76
2021/05/05 09:31:43;;;;;;;4.75;1.00;;;;;;;8.13;73.47;99701.84;4979593;28;20050;-77
2021/05/05 09:34:11;;;;;;;9.05;1.65;;;;;;;8.17;72.76;99705.84;4979177;28;20062;-78
2021/05/05 09:36:55;;;;;;;7.75;2.40;;;;;;;8.35;72.74;99722.44;4979501;28;20089;-77
2021/05/05 09:39:29;;;;;;;6.85;1.38;;;;;;;8.29;71.61;99725.00;4981303;28;20592;-76
2021/05/05 09:41:55;;;;;;;7.75;1.58;;;;;;;8.25;71.29;99710.31;4994287;28;20097;-77
2021/05/05 09:44:21;;;;;;;10.43;1.75;;;;;;;8.25;70.67;99716.47;4994042;28;20039;-76
2021/05/05 09:46:50;;;;;;;5.22;1.40;;;;;;;8.25;71.83;99731.69;4984926;28;20133;-76
2021/05/05 09:49:18;;;;;;;5.15;1.35;;;;;;;8.17;73.51;99745.94;4983281;28;20053;-76
2021/05/05 09:51:55;;;;;;;7.70;1.75;;;;;;;7.95;76.50;99746.69;4982384;28;20042;-77
2021/05/05 09:54:22;;;;;;;9.43;1.95;;;;;;;7.82;77.70;99742.69;4980684;28;20046;-77
2021/05/05 09:56:48;;;;;;;6.63;1.70;;;;;;;7.29;81.05;99760.19;4986776;28;20076;-77
2021/05/05 09:59:13;;;;;;;5.03;1.02;;;;;;;6.94;83.99;99764.03;4996691;28;20046;-78
2021/05/05 10:01:39;;;;;;;4.10;1.13;;;;;;;6.90;86.03;99758.16;4983447;28;20052;-78
2021/05/05 10:04:04;;;;;;;2.80;1.10;;;;;;;6.91;87.39;99759.84;4989079;28;20403;-77
2021/05/05 10:06:32;;;;;;;5.65;1.42;;;;;;;6.99;88.75;99748.34;4963810;28;20046;-77
2021/05/05 10:09:00;;;;;;;5.15;1.63;;;;;;;7.05;90.05;99757.50;4986830;28;20053;-77
2021/05/05 10:11:34;;;;;;;4.05;1.17;;;;;;;6.91;86.05;99781.19;4978068;28;20058;-78
2021/05/05 10:14:04;;;;;;;3.00;1.70;;;;;;;6.78;86.43;99797.66;4975168;28;20403;-76
2021/05/05 10:16:36;;;;;;;3.05;1.10;;;;;;;6.82;87.42;99802.66;4982508;28;20637;-76
2021/05/05 10:19:03;;;;;;;2.00;0.70;;;;;;;7.05;88.46;99790.38;4982178;28;20483;-77
2021/05/05 10:21:30;;;;;;;6.32;1.25;;;;;;;7.12;88.25;99799.38;4983568;28;20456;-77
2021/05/05 10:23:57;;;;;;;6.03;1.02;;;;;;;7.07;86.59;99800.88;4977588;28;20048;-78
2021/05/05 10:26:25;;;;;;;6.25;1.00;;;;;;;7.15;86.56;99804.38;4979797;28;20046;-76
2021/05/05 10:28:51;;;;;;;5.40;1.52;;;;;;;7.29;86.67;99797.53;4980395;28;20398;-78
2021/05/05 10:31:20;;;;;;;6.15;2.47;;;;;;;7.44;85.64;99795.84;4983700;28;20046;-77
2021/05/05 10:33:49;;;;;;;7.90;1.67;;;;;;;7.49;83.92;99792.69;4977608;28;20034;-77
2021/05/05 10:36:39;;;;;;;5.97;1.77;;;;;;;7.70;84.07;99794.81;4993791;28;20060;-78
2021/05/05 10:39:25;;;;;;;8.02;2.05;;;;;;;7.85;86.40;99811.84;4960994;28;20034;-78
2021/05/05 10:42:19;;;;;;;7.97;2.30;;;;;;;7.79;88.93;99814.34;4972869;28;20058;-79
2021/05/05 10:44:46;;;;;;;4.78;2.28;;;;;;;7.61;91.51;99822.53;4996721;28;20159;-75
2021/05/05 10:47:12;;;;;;;12.18;3.40;;;;;;;7.64;90.81;99825.69;4974998;28;20454;-79
2021/05/05 10:50:04;;;;;;;8.02;2.40;;;;;;;7.51;91.46;99827.22;4976854;28;20050;-77
2021/05/05 10:52:54;;;;;;;9.20;3.60;;;;;;;7.30;93.52;99830.41;4987369;28;20826;-77
2021/05/05 10:55:38;;;;;;;9.48;3.10;;;;;;;7.18;93.75;99840.56;4996956;28;20046;-76
2021/05/05 10:58:08;;;;;;;9.73;2.70;;;;;;;7.23;95.04;99835.56;4995417;28;20073;-77
2021/05/05 11:00:44;;;;;;;6.30;2.50;;;;;;;7.28;94.03;99829.72;4983868;28;20049;-78
2021/05/05 11:03:10;;;;;;;13.20;3.60;;;;;;;7.34;93.76;99845.91;4970583;28;20443;-77
2021/05/05 11:05:36;;;;;;;7.45;2.65;;;;;;;7.28;93.66;99878.63;4983153;28;20054;-77
2021/05/05 11:08:06;;;;;;;7.97;2.42;;;;;;;7.11;92.69;99868.91;4991389;28;20050;-76
2021/05/05 11:10:37;;;;;;;6.70;2.33;;;;;;;7.07;94.36;99843.56;4982267;28;20511;-76
2021/05/05 11:13:15;;;;;;;8.70;2.85;;;;;;;7.23;96.32;99864.94;4978126;28;20076;-78
2021/05/05 11:15:40;;;;;;;6.68;2.13;;;;;;;7.36;95.10;99861.75;4989676;28;20096;-77
2021/05/05 11:18:27;;;;;;;6.13;1.73;;;;;;;7.32;92.34;99884.44;4991188;28;20394;-77
2021/05/05 11:20:54;;;;;;;6.68;2.00;;;;;;;7.38;93.06;99881.94;4985581;28;21171;-76
2021/05/05 11:23:35;;;;;;;6.53;2.22;;;;;;;7.51;91.38;99891.28;4987858;28;20426;-76
2021/05/05 11:26:22;;;;;;;8.93;2.17;;;;;;;7.68;89.70;99875.13;4994846;28;20053;-76
2021/05/05 11:28:54;;;;;;;8.98;2.58;;;;;;;7.81;88.33;99895.97;4981396;28;20053;-76
2021/05/05 11:31:20;;;;;;;4.88;1.65;;;;;;;7.94;88.59;99898.13;4984253;28;20046;-77
2021/05/05 11:33:59;;;;;;;6.43;1.63;;;;;;;8.07;89.35;99916.31;4990246;28;20133;-77
2021/05/05 11:36:25;;;;;;;6.03;1.55;;;;;;;8.17;86.75;99894.72;4983173;28;20061;-76
2021/05/05 11:38:51;;;;;;;6.05;2.15;;;;;;;8.24;85.05;99911.78;4980445;28;20062;-76
2021/05/05 11:41:21;;;;;;;9.02;1.75;;;;;;;8.34;85.75;99931.13;4985503;28;20433;-77
2021/05/05 11:43:47;;;;;;;8.35;2.20;;;;;;;8.40;85.54;99926.94;4986544;28;20756;-76
2021/05/05 11:46:12;;;;;;;6.57;1.77;;;;;;;8.44;83.51;99939.00;4987941;28;20117;-77
2021/05/05 11:48:40;;;;;;;8.30;2.05;;;;;;;8.51;83.06;99943.47;4988782;28;20396;-77